Time;durP1;ratioP1;P1;durP2;ratioP2;P2;SDS_P1;SDS_P2;PMS_P1;PMS_P2;Temp;Humidity;BMP_temperature;BMP_pressure;BME280_temperature;BME280_humidity;BME280_pressure;Samples;Min_cycle;Max_cycle;Signal;HPM_P1;HPM_P2
2021/11/06 00:02:37;;;;;;;82.38;55.80;;;;;;;16.86;100.00;101608.03;4939109;29;20072;-70
2021/11/06 00:05:23;;;;;;;79.20;54.78;;;;;;;16.97;100.00;101608.59;4939013;29;20042;-70
2021/11/06 00:08:09;;;;;;;78.53;54.20;;;;;;;16.89;100.00;101621.19;4938486;29;20051;-70
2021/11/06 00:10:55;;;;;;;81.20;53.45;;;;;;;17.14;100.00;101622.19;4924048;29;20106;-70
2021/11/06 00:13:41;;;;;;;81.80;53.05;;;;;;;17.09;100.00;101629.44;4937967;29;20466;-71
2021/11/06 00:16:27;;;;;;;77.88;53.05;;;;;;;17.12;100.00;101634.63;4936880;29;20027;-70
2021/11/06 00:19:12;;;;;;;80.63;53.47;;;;;;;17.14;100.00;101643.38;4939089;29;20054;-70
2021/11/06 00:21:58;;;;;;;79.05;50.80;;;;;;;17.03;100.00;101651.66;4938458;29;20028;-70
2021/11/06 00:24:44;;;;;;;74.25;49.83;;;;;;;17.42;100.00;101654.94;4938447;29;20035;-71
2021/11/06 00:27:30;;;;;;;71.50;49.45;;;;;;;17.35;100.00;101645.38;4938931;29;20035;-70
2021/11/06 00:30:16;;;;;;;73.68;50.20;;;;;;;17.35;100.00;101653.34;4938874;29;20091;-69
2021/11/06 00:33:02;;;;;;;67.90;48.33;;;;;;;17.13;100.00;101665.50;4938550;29;20032;-69
2021/11/06 00:35:48;;;;;;;74.47;49.30;;;;;;;17.47;100.00;101663.59;4939090;29;20035;-70
2021/11/06 00:38:33;;;;;;;69.70;47.58;;;;;;;17.28;100.00;101667.69;4938730;29;20471;-70
2021/11/06 00:41:19;;;;;;;71.35;48.55;;;;;;;17.37;100.00;101672.72;4924670;29;20469;-70
2021/11/06 00:44:05;;;;;;;67.78;47.30;;;;;;;17.36;100.00;101658.59;4937386;29;20043;-70
2021/11/06 00:46:51;;;;;;;75.40;50.70;;;;;;;17.16;100.00;101657.47;4938300;29;20031;-70
2021/11/06 00:49:38;;;;;;;70.72;49.05;;;;;;;17.19;100.00;101652.06;4938757;29;20059;-70
2021/11/06 00:52:24;;;;;;;72.65;48.47;;;;;;;16.70;100.00;101654.38;4925113;29;20031;-69
2021/11/06 00:55:10;;;;;;;72.70;48.40;;;;;;;16.56;100.00;101660.03;4938136;29;20032;-70
2021/11/06 00:57:56;;;;;;;75.82;50.20;;;;;;;17.02;100.00;101659.63;4938366;29;20067;-70
2021/11/06 01:00:42;;;;;;;73.15;48.88;;;;;;;16.86;100.00;101671.56;4937688;29;20031;-70
2021/11/06 01:03:27;;;;;;;73.28;48.28;;;;;;;16.63;100.00;101679.28;4938038;29;20567;-70
2021/11/06 01:06:13;;;;;;;69.78;46.55;;;;;;;16.89;100.00;101677.66;4938395;29;20031;-70
2021/11/06 01:08:59;;;;;;;67.05;46.70;;;;;;;16.75;100.00;101665.69;4937917;29;20035;-69
2021/11/06 01:11:45;;;;;;;73.65;47.83;;;;;;;16.80;100.00;101669.97;4923836;29;20130;-71
2021/11/06 01:14:31;;;;;;;76.63;49.13;;;;;;;16.96;100.00;101667.78;4938300;29;20032;-70
2021/11/06 01:17:16;;;;;;;67.25;46.13;;;;;;;16.76;100.00;101662.16;4935786;29;20098;-70
2021/11/06 01:20:05;;;;;;;66.75;45.17;;;;;;;16.50;100.00;101659.34;4938142;29;20091;-70
2021/11/06 01:22:51;;;;;;;73.05;47.47;;;;;;;17.07;100.00;101655.94;4936973;29;20114;-70
2021/11/06 01:25:37;;;;;;;68.53;45.33;;;;;;;17.02;100.00;101651.69;4936234;29;20035;-70
2021/11/06 01:28:23;;;;;;;61.45;44.10;;;;;;;17.31;100.00;101646.41;4924349;29;20094;-70
2021/11/06 01:31:08;;;;;;;68.40;45.13;;;;;;;17.08;100.00;101647.06;4923358;29;20078;-70
2021/11/06 01:33:54;;;;;;;67.28;46.83;;;;;;;17.22;100.00;101651.97;4937308;29;20037;-70
2021/11/06 01:36:40;;;;;;;66.47;44.70;;;;;;;16.82;100.00;101661.97;4937731;29;20023;-70
2021/11/06 01:39:26;;;;;;;61.60;42.20;;;;;;;16.86;100.00;101674.22;4937771;29;20365;-70
2021/11/06 01:42:12;;;;;;;58.90;43.40;;;;;;;16.84;100.00;101670.75;4923023;29;20114;-70
2021/11/06 01:44:58;;;;;;;62.20;43.17;;;;;;;16.88;100.00;101675.91;4923921;29;20436;-70
2021/11/06 01:47:43;;;;;;;68.60;44.40;;;;;;;16.87;100.00;101662.72;4922367;29;20044;-70
2021/11/06 01:50:29;;;;;;;63.83;41.60;;;;;;;16.87;100.00;101668.00;4937957;29;20128;-70
2021/11/06 01:53:15;;;;;;;64.38;43.17;;;;;;;17.24;100.00;101663.41;4937040;29;20028;-70
2021/11/06 01:56:02;;;;;;;61.72;43.25;;;;;;;16.95;100.00;101682.78;4937363;29;20031;-69
2021/11/06 01:58:48;;;;;;;64.32;43.30;;;;;;;16.97;100.00;101691.56;4924096;29;20062;-70
2021/11/06 02:01:35;;;;;;;59.85;42.90;;;;;;;16.91;100.00;101696.13;4937336;29;20386;-70
2021/11/06 02:04:20;;;;;;;66.60;43.83;;;;;;;17.03;100.00;101694.00;4937114;29;20039;-71
2021/11/06 02:07:06;;;;;;;62.65;42.10;;;;;;;16.82;100.00;101691.09;4936899;29;20028;-70
2021/11/06 02:09:52;;;;;;;65.78;43.95;;;;;;;16.29;100.00;101694.25;4935205;29;20024;-70
2021/11/06 02:12:40;;;;;;;68.63;44.17;;;;;;;16.11;100.00;101692.09;4937143;29;20036;-70
2021/11/06 02:15:26;;;;;;;63.80;45.10;;;;;;;16.21;100.00;101690.94;4937033;29;20031;-70
2021/11/06 02:18:12;;;;;;;64.88;43.53;;;;;;;16.11;100.00;101692.09;4937290;29;20038;-70
2021/11/06 02:21:09;;;;;;;65.35;46.33;;;;;;;16.30;100.00;101690.69;4937116;29;20031;-70
2021/11/06 02:23:55;;;;;;;69.20;46.58;;;;;;;16.08;100.00;101692.16;4936709;29;20055;-70
2021/11/06 02:26:41;;;;;;;72.43;45.47;;;;;;;16.28;100.00;101682.78;4937414;29;20036;-69
2021/11/06 02:29:27;;;;;;;72.22;48.28;;;;;;;16.06;100.00;101686.91;4937206;29;20114;-70
2021/11/06 02:32:13;;;;;;;69.63;46.05;;;;;;;16.13;100.00;101674.41;4927127;29;20043;-70
2021/11/06 02:34:58;;;;;;;66.88;47.03;;;;;;;16.64;100.00;101671.28;4940724;29;20028;-71
2021/11/06 02:37:44;;;;;;;67.15;46.38;;;;;;;16.50;100.00;101683.16;4940651;29;20032;-70
2021/11/06 02:40:30;;;;;;;67.82;46.67;;;;;;;16.33;100.00;101687.97;4940627;29;20106;-70
2021/11/06 02:43:16;;;;;;;74.72;48.13;;;;;;;16.33;100.00;101719.72;4940413;29;20041;-70
2021/11/06 02:46:01;;;;;;;69.10;47.50;;;;;;;16.64;100.00;101726.84;4939271;29;20036;-70
2021/11/06 02:48:47;;;;;;;75.22;47.92;;;;;;;16.65;100.00;101735.69;4940250;29;20059;-71
2021/11/06 02:51:33;;;;;;;72.25;47.53;;;;;;;16.67;100.00;101741.78;4940072;29;20383;-71
2021/11/06 02:54:19;;;;;;;70.50;46.45;;;;;;;17.06;100.00;101748.66;4940177;29;20031;-69
2021/11/06 02:57:08;;;;;;;67.45;46.97;;;;;;;16.70;100.00;101763.75;4938307;29;20042;-70
2021/11/06 02:59:54;;;;;;;73.03;48.35;;;;;;;16.50;100.00;101762.53;4940609;29;20040;-70
2021/11/06 03:02:40;;;;;;;72.15;47.17;;;;;;;16.62;100.00;101767.50;4926010;29;20042;-70
2021/11/06 03:05:26;;;;;;;68.68;47.05;;;;;;;16.54;100.00;101766.81;4939934;29;20039;-70
2021/11/06 03:08:12;;;;;;;74.93;47.65;;;;;;;16.59;100.00;101763.16;4940014;29;20035;-70
2021/11/06 03:10:58;;;;;;;72.57;47.78;;;;;;;16.70;100.00;101765.53;4939898;29;20036;-70
2021/11/06 03:13:45;;;;;;;67.45;46.40;;;;;;;16.50;100.00;101766.03;4940035;29;20103;-70
2021/11/06 03:16:32;;;;;;;73.05;48.67;;;;;;;16.33;100.00;101769.97;4940200;29;20028;-70
2021/11/06 03:19:18;;;;;;;70.03;48.92;;;;;;;16.50;100.00;101765.16;4939982;29;20442;-69
2021/11/06 03:22:05;;;;;;;72.85;47.97;;;;;;;16.41;100.00;101771.56;4940119;29;20040;-70
2021/11/06 03:24:51;;;;;;;72.53;48.42;;;;;;;16.73;100.00;101773.41;4940097;29;20051;-69
2021/11/06 03:27:36;;;;;;;64.45;45.67;;;;;;;16.46;100.00;101776.72;4939592;29;20035;-70
2021/11/06 03:30:22;;;;;;;74.45;49.67;;;;;;;16.32;100.00;101786.75;4925907;29;20109;-70
2021/11/06 03:33:08;;;;;;;72.68;48.05;;;;;;;16.04;100.00;101780.38;4939760;29;20466;-69
2021/11/06 03:35:55;;;;;;;74.25;50.75;;;;;;;16.26;100.00;101784.25;4924882;29;20034;-70
2021/11/06 03:38:41;;;;;;;71.80;48.72;;;;;;;16.28;100.00;101782.44;4939563;29;20525;-70
2021/11/06 03:41:27;;;;;;;75.13;49.30;;;;;;;16.20;100.00;101773.81;4937508;29;20450;-70
2021/11/06 03:44:13;;;;;;;73.65;48.85;;;;;;;16.06;100.00;101781.19;4938675;29;20414;-70
2021/11/06 03:47:00;;;;;;;74.55;49.80;;;;;;;15.79;100.00;101782.69;4939047;29;20042;-70
2021/11/06 03:49:45;;;;;;;70.68;48.63;;;;;;;16.03;100.00;101790.06;4939456;29;20040;-70
2021/11/06 03:52:31;;;;;;;75.82;50.03;;;;;;;15.96;100.00;101792.91;4939763;29;20032;-69
2021/11/06 03:55:17;;;;;;;71.30;49.28;;;;;;;15.97;100.00;101792.88;4939393;29;20100;-70
2021/11/06 03:58:03;;;;;;;75.63;48.55;;;;;;;16.16;100.00;101791.50;4939522;29;20042;-68
2021/11/06 04:00:49;;;;;;;75.72;46.08;;;;;;;15.78;100.00;101801.22;4939157;29;20024;-69
2021/11/06 04:03:35;;;;;;;71.85;49.17;;;;;;;15.99;100.00;101795.47;4925758;29;20032;-70
2021/11/06 04:06:21;;;;;;;70.68;49.60;;;;;;;16.11;100.00;101784.63;4924124;29;20032;-70
2021/11/06 04:09:07;;;;;;;73.90;48.65;;;;;;;16.11;100.00;101787.28;4939616;29;20094;-69
2021/11/06 04:11:52;;;;;;;75.10;49.15;;;;;;;15.89;100.00;101789.53;4939060;29;20473;-70
2021/11/06 04:14:38;;;;;;;78.68;49.25;;;;;;;16.07;100.00;101791.75;4940015;29;20027;-69
2021/11/06 04:17:24;;;;;;;72.75;48.35;;;;;;;15.76;100.00;101796.00;4939497;29;20143;-70
2021/11/06 04:20:10;;;;;;;74.65;51.17;;;;;;;16.19;100.00;101791.47;4938791;29;20051;-70
2021/11/06 04:22:56;;;;;;;74.47;49.88;;;;;;;15.62;100.00;101790.09;4938673;29;20453;-70
2021/11/06 04:25:42;;;;;;;70.70;49.33;;;;;;;15.79;100.00;101793.25;4925195;29;20039;-68
2021/11/06 04:28:28;;;;;;;75.57;50.17;;;;;;;16.05;100.00;101803.25;4924309;29;20090;-70
2021/11/06 04:31:14;;;;;;;69.85;48.53;;;;;;;16.11;100.00;101803.97;4937336;29;20032;-70
2021/11/06 04:34:02;;;;;;;74.15;48.58;;;;;;;16.13;100.00;101812.75;4938646;29;20514;-70
2021/11/06 04:36:49;;;;;;;71.43;48.05;;;;;;;16.33;100.00;101821.09;4936974;29;20032;-71
2021/11/06 04:39:35;;;;;;;70.72;49.95;;;;;;;16.45;100.00;101825.25;4938483;29;20032;-70
2021/11/06 04:42:20;;;;;;;82.85;51.83;;;;;;;16.53;100.00;101834.78;4923318;29;20031;-70
2021/11/06 04:45:08;;;;;;;76.35;51.28;;;;;;;16.42;100.00;101833.25;4924873;29;20042;-69
2021/11/06 04:47:54;;;;;;;72.68;50.35;;;;;;;16.42;100.00;101847.38;4938274;29;20399;-70
2021/11/06 04:50:40;;;;;;;77.35;52.40;;;;;;;15.82;100.00;101843.41;4925076;29;20047;-70
2021/11/06 04:53:26;;;;;;;76.10;51.55;;;;;;;16.22;100.00;101835.47;4922965;29;20034;-70
2021/11/06 04:56:11;;;;;;;80.85;52.85;;;;;;;16.21;100.00;101844.31;4937997;29;20034;-70
2021/11/06 04:58:57;;;;;;;76.90;52.38;;;;;;;16.58;100.00;101845.22;4936688;29;20446;-69
2021/11/06 05:01:43;;;;;;;73.50;50.42;;;;;;;16.52;100.00;101853.31;4937291;29;20403;-69
2021/11/06 05:04:29;;;;;;;82.35;53.10;;;;;;;16.26;100.00;101858.28;4937563;29;20105;-69
2021/11/06 05:07:15;;;;;;;68.95;48.65;;;;;;;16.03;100.00;101855.31;4937978;29;20020;-70
2021/11/06 05:10:02;;;;;;;79.13;53.15;;;;;;;16.39;100.00;101868.56;4937737;29;20031;-70
2021/11/06 05:12:50;;;;;;;76.72;51.90;;;;;;;16.47;100.00;101865.78;4938600;29;20031;-69
2021/11/06 05:15:36;;;;;;;80.70;50.80;;;;;;;16.32;100.00;101881.97;4938182;29;20028;-69
2021/11/06 05:18:22;;;;;;;72.45;50.80;;;;;;;16.42;100.00;101883.53;4937883;29;20031;-71
2021/11/06 05:21:08;;;;;;;72.78;50.15;;;;;;;16.23;100.00;101895.41;4938312;29;20063;-69
2021/11/06 05:23:54;;;;;;;70.68;49.30;;;;;;;16.34;100.00;101894.25;4922488;29;20063;-69
2021/11/06 05:26:40;;;;;;;71.90;49.80;;;;;;;16.42;100.00;101894.09;4937366;29;20110;-70
2021/11/06 05:29:25;;;;;;;76.18;50.58;;;;;;;16.40;100.00;101902.03;4937958;29;20389;-71
2021/11/06 05:32:11;;;;;;;67.30;48.75;;;;;;;16.58;100.00;101911.38;4937570;29;20098;-70
2021/11/06 05:34:57;;;;;;;73.95;49.88;;;;;;;16.57;100.00;101912.28;4937378;29;20366;-71
2021/11/06 05:37:43;;;;;;;69.90;47.53;;;;;;;16.83;100.00;101928.41;4937324;29;20027;-70
2021/11/06 05:40:29;;;;;;;70.20;49.05;;;;;;;16.81;100.00;101927.59;4937485;29;20469;-70
2021/11/06 05:43:14;;;;;;;67.10;47.22;;;;;;;16.66;100.00;101936.75;4936655;29;20063;-70
2021/11/06 05:46:00;;;;;;;69.78;48.38;;;;;;;16.83;100.00;101939.00;4922261;29;20035;-70
2021/11/06 05:48:46;;;;;;;70.85;49.72;;;;;;;16.67;100.00;101948.19;4937051;29;20035;-70
2021/11/06 05:51:32;;;;;;;75.75;48.95;;;;;;;16.35;100.00;101933.03;4936253;29;20027;-70
2021/11/06 05:54:18;;;;;;;79.88;52.70;;;;;;;16.87;100.00;101943.31;4937823;29;20312;-70
2021/11/06 05:57:04;;;;;;;75.22;50.85;;;;;;;16.66;100.00;101957.94;4937702;29;20039;-70
2021/11/06 05:59:50;;;;;;;79.32;53.08;;;;;;;16.99;100.00;101966.84;4937299;29;20102;-70
2021/11/06 06:02:36;;;;;;;78.15;49.92;;;;;;;16.82;100.00;101979.63;4937963;29;20339;-69
2021/11/06 06:05:22;;;;;;;85.53;56.28;;;;;;;16.39;100.00;101994.69;4938882;29;20502;-70
2021/11/06 06:08:08;;;;;;;87.65;58.15;;;;;;;16.00;100.00;102014.88;4941304;29;20112;-70
2021/11/06 06:10:54;;;;;;;76.97;54.08;;;;;;;16.10;100.00;102028.75;4942305;29;20035;-70
2021/11/06 06:13:40;;;;;;;76.80;53.42;;;;;;;16.12;100.00;102043.69;4927818;29;20126;-69
2021/11/06 06:16:26;;;;;;;77.22;55.42;;;;;;;16.07;100.00;102063.22;4939644;29;20493;-69
2021/11/06 06:19:12;;;;;;;92.65;59.65;;;;;;;16.03;100.00;102067.66;4940923;29;20068;-69
2021/11/06 06:21:57;;;;;;;78.85;54.40;;;;;;;16.23;100.00;102054.09;4941608;29;20367;-70
2021/11/06 06:24:43;;;;;;;75.18;52.05;;;;;;;16.56;100.00;102053.44;4926919;29;20028;-70
2021/11/06 06:27:29;;;;;;;76.57;51.90;;;;;;;16.56;100.00;102066.66;4941586;29;20024;-70
2021/11/06 06:30:16;;;;;;;75.20;51.28;;;;;;;16.52;100.00;102073.78;4940905;29;20063;-69
2021/11/06 06:33:02;;;;;;;80.25;50.80;;;;;;;16.34;100.00;102074.13;4926839;29;20036;-71
2021/11/06 06:35:48;;;;;;;76.25;53.15;;;;;;;16.73;100.00;102069.84;4940706;29;20038;-70
2021/11/06 06:38:34;;;;;;;82.93;54.13;;;;;;;16.55;100.00;102073.72;4940918;29;20036;-70
2021/11/06 06:41:20;;;;;;;76.13;51.10;;;;;;;17.00;100.00;102077.19;4939048;29;20039;-68
2021/11/06 06:44:05;;;;;;;70.97;50.17;;;;;;;16.91;100.00;102072.94;4940355;29;20070;-69
2021/11/06 06:46:51;;;;;;;74.30;50.40;;;;;;;17.36;100.00;102079.00;4940405;29;20036;-69
2021/11/06 06:49:37;;;;;;;70.07;49.25;;;;;;;17.52;100.00;102086.56;4940544;29;20110;-70
2021/11/06 06:52:24;;;;;;;71.88;50.08;;;;;;;17.59;100.00;102098.75;4939161;29;20038;-70
2021/11/06 06:55:09;;;;;;;70.32;47.38;;;;;;;17.42;100.00;102093.00;4939091;29;20042;-69
2021/11/06 06:57:55;;;;;;;72.65;49.63;;;;;;;17.23;100.00;102096.06;4940418;29;20098;-69
2021/11/06 07:00:41;;;;;;;76.90;51.90;;;;;;;17.17;100.00;102110.34;4926132;29;20040;-70
2021/11/06 07:03:27;;;;;;;67.75;48.83;;;;;;;17.24;100.00;102117.22;4926381;29;20039;-70
2021/11/06 07:06:13;;;;;;;69.78;48.17;;;;;;;17.17;100.00;102120.06;4939740;29;20374;-70
2021/11/06 07:09:00;;;;;;;70.63;49.60;;;;;;;17.48;100.00;102113.19;4939876;29;20039;-69
2021/11/06 07:11:46;;;;;;;72.18;49.38;;;;;;;17.79;100.00;102123.00;4940012;29;20409;-70
2021/11/06 07:14:32;;;;;;;76.95;51.25;;;;;;;17.57;100.00;102123.56;4939814;29;20031;-69
2021/11/06 07:17:18;;;;;;;73.90;48.63;;;;;;;17.65;100.00;102134.84;4939699;29;20027;-69
2021/11/06 07:20:06;;;;;;;71.00;48.20;;;;;;;17.59;100.00;102140.28;4939824;29;20454;-70
2021/11/06 07:22:52;;;;;;;66.72;46.17;;;;;;;17.64;100.00;102143.72;4925655;29;20483;-69
2021/11/06 07:25:38;;;;;;;51.85;37.17;;;;;;;17.67;100.00;102149.81;4924948;29;20064;-69
2021/11/06 07:28:24;;;;;;;47.80;33.67;;;;;;;17.62;100.00;102150.81;4938565;29;20114;-70
2021/11/06 07:31:10;;;;;;;54.70;37.80;;;;;;;18.02;100.00;102144.53;4938460;29;20035;-70
2021/11/06 07:33:56;;;;;;;55.95;39.72;;;;;;;18.01;100.00;102144.56;4938432;29;20458;-70
2021/11/06 07:36:42;;;;;;;48.92;33.30;;;;;;;17.78;100.00;102139.81;4938222;29;20339;-70
2021/11/06 07:39:27;;;;;;;41.10;29.70;;;;;;;17.90;100.00;102136.88;4924938;29;20464;-71
2021/11/06 07:42:13;;;;;;;39.78;28.80;;;;;;;18.32;100.00;102135.75;4938436;29;20024;-70
2021/11/06 07:44:59;;;;;;;41.55;31.30;;;;;;;18.17;100.00;102133.50;4924139;29;20358;-70
2021/11/06 07:47:45;;;;;;;45.25;31.85;;;;;;;18.59;100.00;102131.50;4938560;29;20028;-69
2021/11/06 07:50:31;;;;;;;44.45;31.85;;;;;;;17.82;100.00;102127.34;4938861;29;20063;-71
2021/11/06 07:53:17;;;;;;;43.25;31.15;;;;;;;18.36;100.00;102132.13;4924794;29;20442;-71
2021/11/06 07:56:03;;;;;;;43.20;31.70;;;;;;;18.21;100.00;102135.16;4937844;29;20152;-70
2021/11/06 07:58:50;;;;;;;39.83;30.08;;;;;;;18.33;100.00;102131.31;4938084;29;20040;-71
2021/11/06 08:01:35;;;;;;;39.72;29.48;;;;;;;18.37;100.00;102133.00;4937533;29;20059;-71
2021/11/06 08:04:21;;;;;;;39.45;27.58;;;;;;;18.66;100.00;102141.03;4924545;29;20038;-70
2021/11/06 08:07:07;;;;;;;36.58;26.55;;;;;;;19.16;100.00;102151.94;4924680;29;20035;-71
2021/11/06 08:09:53;;;;;;;37.88;28.38;;;;;;;18.83;100.00;102154.72;4937918;29;20031;-72
2021/11/06 08:12:41;;;;;;;38.35;25.90;;;;;;;18.09;100.00;102150.53;4938442;29;20039;-71
2021/11/06 08:15:27;;;;;;;38.75;26.10;;;;;;;18.40;100.00;102163.00;4938008;29;20023;-71
2021/11/06 08:18:13;;;;;;;40.72;28.75;;;;;;;18.28;100.00;102162.38;4937561;29;20032;-70
2021/11/06 08:20:59;;;;;;;41.72;29.30;;;;;;;18.45;100.00;102166.38;4937934;29;20042;-71
2021/11/06 08:23:45;;;;;;;43.60;29.92;;;;;;;18.38;100.00;102172.78;4899236;29;1129134;-70
2021/11/06 08:26:31;;;;;;;37.70;28.65;;;;;;;18.14;100.00;102180.47;4938454;29;20055;-70
2021/11/06 08:29:16;;;;;;;44.65;30.63;;;;;;;17.94;100.00;102182.75;4937685;29;20186;-70
2021/11/06 08:32:02;;;;;;;45.63;31.05;;;;;;;18.32;100.00;102188.81;4937481;29;20023;-69
2021/11/06 08:34:48;;;;;;;41.75;29.38;;;;;;;18.72;100.00;102193.97;4938939;29;20106;-70
2021/11/06 08:37:34;;;;;;;40.10;29.70;;;;;;;18.47;100.00;102203.50;4937611;29;20028;-70
2021/11/06 08:40:20;;;;;;;44.88;28.98;;;;;;;18.46;100.00;102215.91;4939000;29;20023;-70
2021/11/06 08:43:06;;;;;;;41.15;29.85;;;;;;;18.59;100.00;102220.00;4938587;29;20027;-70
2021/11/06 08:45:53;;;;;;;42.00;28.60;;;;;;;18.44;100.00;102211.53;4938760;29;20059;-70
2021/11/06 08:48:38;;;;;;;44.20;30.23;;;;;;;17.80;100.00;102206.94;4938365;29;20051;-70
2021/11/06 08:51:24;;;;;;;44.40;30.42;;;;;;;18.33;100.00;102203.81;4923716;29;20122;-70
2021/11/06 08:54:10;;;;;;;42.63;29.42;;;;;;;18.24;100.00;102200.53;4938337;29;20059;-70
2021/11/06 08:56:57;;;;;;;43.92;30.83;;;;;;;18.26;100.00;102188.09;4937843;29;20131;-70
2021/11/06 08:59:43;;;;;;;41.83;28.50;;;;;;;18.50;100.00;102195.47;4938080;29;20135;-70
2021/11/06 09:02:29;;;;;;;37.28;28.25;;;;;;;18.74;100.00;102208.09;4923377;29;20036;-70
2021/11/06 09:05:14;;;;;;;35.90;27.38;;;;;;;18.35;100.00;102215.31;4938469;29;20027;-70
2021/11/06 09:08:01;;;;;;;43.10;29.45;;;;;;;18.28;100.00;102215.47;4937679;29;20037;-70
2021/11/06 09:10:47;;;;;;;38.10;27.65;;;;;;;19.03;100.00;102227.63;4924305;29;20036;-71
2021/11/06 09:13:33;;;;;;;48.88;30.25;;;;;;;18.99;100.00;102211.78;4938583;29;20031;-70
2021/11/06 09:16:20;;;;;;;42.25;30.60;;;;;;;18.84;100.00;102212.22;4937507;29;20019;-71
2021/11/06 09:19:07;;;;;;;43.08;30.92;;;;;;;18.73;100.00;102225.78;4937946;29;20118;-71
2021/11/06 09:21:53;;;;;;;38.85;27.75;;;;;;;18.89;100.00;102239.53;4937718;29;20028;-69
2021/11/06 09:24:40;;;;;;;42.10;30.55;;;;;;;19.31;100.00;102233.03;4937840;29;20473;-71
2021/11/06 09:27:26;;;;;;;42.22;30.10;;;;;;;18.77;100.00;102237.22;4937499;29;20051;-70
2021/11/06 09:30:12;;;;;;;44.42;29.85;;;;;;;18.70;100.00;102230.31;4937451;29;20103;-69
2021/11/06 09:32:58;;;;;;;45.33;30.83;;;;;;;19.40;100.00;102222.13;4924878;29;20134;-70
2021/11/06 09:35:44;;;;;;;47.88;33.95;;;;;;;19.55;100.00;102208.38;4924157;29;20044;-70
2021/11/06 09:38:30;;;;;;;47.13;31.88;;;;;;;19.31;100.00;102192.28;4937322;29;20066;-70
2021/11/06 09:41:17;;;;;;;43.85;31.30;;;;;;;18.64;100.00;102180.03;4937547;29;20431;-70
2021/11/06 09:44:04;;;;;;;46.47;32.10;;;;;;;18.93;100.00;102174.78;4937375;29;20035;-70
2021/11/06 09:46:50;;;;;;;44.13;31.73;;;;;;;19.28;100.00;102182.63;4937012;29;20510;-70
2021/11/06 09:49:40;;;;;;;54.40;34.88;;;;;;;19.49;100.00;102194.41;4937893;29;20046;-70
2021/11/06 09:52:26;;;;;;;54.33;37.17;;;;;;;19.51;100.00;102193.44;4937284;29;20102;-70
2021/11/06 09:55:16;;;;;;;59.92;40.05;;;;;;;19.19;100.00;102191.72;4923770;29;20450;-70
2021/11/06 09:58:02;;;;;;;61.25;41.47;;;;;;;18.69;100.00;102197.56;4937026;29;20493;-70
2021/11/06 10:00:48;;;;;;;64.82;43.15;;;;;;;18.38;100.00;102187.81;4936974;29;20028;-70
2021/11/06 10:03:35;;;;;;;61.60;42.25;;;;;;;18.77;100.00;102174.34;4923601;29;20026;-71
2021/11/06 10:06:24;;;;;;;59.03;41.08;;;;;;;19.12;100.00;102182.16;4936825;29;20490;-70
2021/11/06 10:09:11;;;;;;;54.35;38.95;;;;;;;19.43;100.00;102190.13;4936761;29;20050;-70
2021/11/06 10:11:57;;;;;;;58.50;40.40;;;;;;;18.50;100.00;102192.81;4937382;29;20308;-70
2021/11/06 10:14:43;;;;;;;55.20;39.50;;;;;;;18.53;100.00;102177.66;4936995;29;20103;-70
2021/11/06 10:17:32;;;;;;;59.80;40.10;;;;;;;18.94;100.00;102174.72;4921994;29;20422;-70
2021/11/06 10:20:21;;;;;;;56.67;40.13;;;;;;;19.10;100.00;102169.84;4937118;29;20442;-73
2021/11/06 10:23:07;;;;;;;59.17;41.08;;;;;;;19.05;100.00;102171.78;4936308;29;20062;-70
2021/11/06 10:26:09;;;;;;;62.78;41.03;;;;;;;19.10;100.00;102196.41;4936874;29;20028;-70
2021/11/06 10:29:10;;;;;;;63.40;41.92;;;;;;;19.01;100.00;102204.66;4935541;29;20477;-70
2021/11/06 10:31:59;;;;;;;62.97;39.60;;;;;;;19.17;100.00;102228.06;4937097;29;20477;-69
2021/11/06 10:34:45;;;;;;;59.90;41.63;;;;;;;19.48;100.00;102229.88;4922819;29;20028;-70
2021/11/06 10:37:31;;;;;;;62.45;41.15;;;;;;;19.34;100.00;102221.44;4936952;29;20032;-71
2021/11/06 10:40:20;;;;;;;63.70;41.25;;;;;;;19.20;100.00;102238.63;4936721;29;20470;-71
2021/11/06 10:43:07;;;;;;;60.78;40.50;;;;;;;19.08;100.00;102243.41;4936873;29;20031;-70
2021/11/06 10:45:59;;;;;;;58.60;40.47;;;;;;;19.38;100.00;102244.34;4936537;29;20447;-70
2021/11/06 10:48:46;;;;;;;56.30;37.97;;;;;;;20.02;100.00;102237.00;4936312;29;20039;-71
2021/11/06 10:51:32;;;;;;;62.70;41.25;;;;;;;19.87;100.00;102237.50;4938504;29;20063;-70
2021/11/06 10:54:18;;;;;;;62.75;38.80;;;;;;;19.58;100.00;102221.56;4940412;29;20024;-70
2021/11/06 10:57:03;;;;;;;61.40;39.55;;;;;;;19.66;100.00;102218.66;4940527;29;20024;-70
2021/11/06 11:00:08;;;;;;;66.25;41.78;;;;;;;19.04;100.00;102212.53;4939151;29;20028;-71
2021/11/06 11:02:54;;;;;;;63.67;40.13;;;;;;;19.03;100.00;102211.69;4927060;29;20101;-70
2021/11/06 11:05:40;;;;;;;63.17;38.97;;;;;;;18.94;100.00;102209.25;4938894;29;20039;-71
2021/11/06 11:08:28;;;;;;;59.47;37.47;;;;;;;19.06;100.00;102208.91;4926683;29;20090;-70
2021/11/06 11:11:19;;;;;;;53.63;36.25;;;;;;;18.85;100.00;102203.34;4940097;29;20411;-70
2021/11/06 11:14:09;;;;;;;52.03;36.00;;;;;;;18.75;100.00;102191.22;4940387;29;20034;-70
2021/11/06 11:17:05;;;;;;;55.55;37.28;;;;;;;18.82;100.00;102185.69;4939416;29;20621;-71
2021/11/06 11:19:50;;;;;;;61.95;38.28;;;;;;;18.95;100.00;102178.25;4940816;29;20035;-71
2021/11/06 11:22:36;;;;;;;59.58;37.63;;;;;;;18.70;100.00;102182.53;4939762;29;20048;-72
2021/11/06 11:25:22;;;;;;;65.80;38.72;;;;;;;18.64;100.00;102195.94;4939462;29;20051;-71
2021/11/06 11:28:09;;;;;;;56.10;35.35;;;;;;;18.99;100.00;102204.72;4940691;29;20350;-70
2021/11/06 11:30:55;;;;;;;61.75;39.22;;;;;;;18.75;100.00;102196.53;4925996;29;20046;-71
2021/11/06 11:33:43;;;;;;;66.55;40.03;;;;;;;18.66;100.00;102195.00;4939226;29;20028;-70
2021/11/06 11:36:31;;;;;;;58.53;38.40;;;;;;;19.00;100.00;102192.28;4939915;29;20116;-71
2021/11/06 11:39:19;;;;;;;51.35;33.78;;;;;;;19.16;100.00;102188.25;4939667;29;20094;-69
2021/11/06 11:42:23;;;;;;;52.13;32.58;;;;;;;19.06;100.00;102179.69;4939433;29;20027;-71
2021/11/06 11:45:27;;;;;;;52.03;32.85;;;;;;;18.78;100.00;102176.06;4937534;29;20028;-70
2021/11/06 11:48:19;;;;;;;53.03;31.98;;;;;;;18.88;100.00;102166.06;4925814;29;20082;-70
2021/11/06 11:51:05;;;;;;;56.13;34.42;;;;;;;18.81;100.00;102175.13;4939341;29;20028;-70
2021/11/06 11:53:58;;;;;;;50.10;33.72;;;;;;;18.70;100.00;102174.56;4937493;29;20126;-70
2021/11/06 11:56:45;;;;;;;51.38;33.03;;;;;;;18.85;100.00;102169.69;4937504;29;20032;-72
2021/11/06 11:59:32;;;;;;;50.33;31.15;;;;;;;18.57;100.00;102151.94;4939434;29;20039;-70
2021/11/06 12:02:38;;;;;;;49.17;32.13;;;;;;;18.80;100.00;102160.09;4938706;29;20055;-70
2021/11/06 12:05:24;;;;;;;49.28;31.23;;;;;;;18.50;100.00;102153.88;4937661;29;20099;-70
2021/11/06 12:08:10;;;;;;;50.40;32.65;;;;;;;18.29;100.00;102166.81;4924810;29;20038;-70
2021/11/06 12:11:00;;;;;;;48.17;32.38;;;;;;;18.59;100.00;102185.47;4924407;29;20031;-71
2021/11/06 12:13:49;;;;;;;48.17;30.20;;;;;;;18.61;100.00;102186.28;4924759;29;20131;-70
2021/11/06 12:16:52;;;;;;;44.80;30.48;;;;;;;18.94;100.00;102188.00;4938310;29;20023;-71
2021/11/06 12:19:44;;;;;;;48.65;31.27;;;;;;;18.69;100.00;102175.47;4938904;29;20032;-71
2021/11/06 12:22:32;;;;;;;44.15;30.02;;;;;;;19.04;100.00;102170.00;4938583;29;20066;-71
2021/11/06 12:25:20;;;;;;;43.53;29.05;;;;;;;19.10;100.00;102181.34;4939336;29;20473;-73
2021/11/06 12:28:20;;;;;;;49.20;31.10;;;;;;;18.56;100.00;102198.81;4938620;29;20371;-70
2021/11/06 12:31:27;;;;;;;47.28;30.80;;;;;;;18.74;100.00;102184.19;4938566;29;20118;-70